sensor_id;sensor_type;location;lat;lon;timestamp;pressure;altitude;pressure_sealevel;temperature;humidity
59939;BME280;45801;51.810;19.444;2022-10-31T00:01:56;99399.55;;;12.89;72.59
59939;BME280;45801;51.810;19.444;2022-10-31T00:04:21;99403.30;;;12.86;72.52
59939;BME280;45801;51.810;19.444;2022-10-31T00:06:47;99406.92;;;12.85;72.47
59939;BME280;45801;51.810;19.444;2022-10-31T00:09:13;99409.98;;;12.82;72.27
59939;BME280;45801;51.810;19.444;2022-10-31T00:11:39;99414.69;;;12.81;72.39
59939;BME280;45801;51.810;19.444;2022-10-31T00:14:04;99413.39;;;12.79;72.34
59939;BME280;45801;51.810;19.444;2022-10-31T00:16:31;99420.02;;;12.77;72.32
59939;BME280;45801;51.810;19.444;2022-10-31T00:18:59;99423.15;;;12.77;72.34
59939;BME280;45801;51.810;19.444;2022-10-31T00:21:26;99425.92;;;12.75;71.87
59939;BME280;45801;51.810;19.444;2022-10-31T00:23:53;99426.49;;;12.72;72.08
59939;BME280;45801;51.810;19.444;2022-10-31T00:26:19;99427.84;;;12.71;72.45
59939;BME280;45801;51.810;19.444;2022-10-31T00:28:45;99432.71;;;12.69;72.27
59939;BME280;45801;51.810;19.444;2022-10-31T00:31:12;99425.55;;;12.70;72.69
59939;BME280;45801;51.810;19.444;2022-10-31T00:33:38;99425.53;;;12.70;72.55
59939;BME280;45801;51.810;19.444;2022-10-31T00:36:06;99430.62;;;12.69;72.29
59939;BME280;45801;51.810;19.444;2022-10-31T00:38:32;99431.42;;;12.67;72.54
59939;BME280;45801;51.810;19.444;2022-10-31T00:40:58;99426.61;;;12.66;72.37
59939;BME280;45801;51.810;19.444;2022-10-31T00:43:24;99427.55;;;12.63;72.20
59939;BME280;45801;51.810;19.444;2022-10-31T00:45:50;99428.50;;;12.60;72.12
59939;BME280;45801;51.810;19.444;2022-10-31T00:48:16;99427.02;;;12.58;72.24
59939;BME280;45801;51.810;19.444;2022-10-31T00:50:42;99431.39;;;12.57;72.75
59939;BME280;45801;51.810;19.444;2022-10-31T00:53:08;99430.14;;;12.57;72.72
59939;BME280;45801;51.810;19.444;2022-10-31T00:55:34;99432.36;;;12.55;72.27
59939;BME280;45801;51.810;19.444;2022-10-31T00:58:00;99431.81;;;12.55;72.20
59939;BME280;45801;51.810;19.444;2022-10-31T01:04:08;99433.52;;;12.53;72.50
59939;BME280;45801;51.810;19.444;2022-10-31T01:06:33;99435.55;;;12.56;72.54
59939;BME280;45801;51.810;19.444;2022-10-31T01:08:59;99433.36;;;12.59;72.52
59939;BME280;45801;51.810;19.444;2022-10-31T01:11:25;99434.81;;;12.60;72.32
59939;BME280;45801;51.810;19.444;2022-10-31T01:13:52;99436.80;;;12.61;72.46
59939;BME280;45801;51.810;19.444;2022-10-31T01:16:20;99434.77;;;12.58;72.05
59939;BME280;45801;51.810;19.444;2022-10-31T01:18:46;99434.88;;;12.57;72.16
59939;BME280;45801;51.810;19.444;2022-10-31T01:21:15;99430.63;;;12.56;72.17
59939;BME280;45801;51.810;19.444;2022-10-31T01:23:42;99428.59;;;12.53;71.96
59939;BME280;45801;51.810;19.444;2022-10-31T01:26:13;99424.45;;;12.50;72.16
59939;BME280;45801;51.810;19.444;2022-10-31T01:29:06;99421.05;;;12.49;72.39
59939;BME280;45801;51.810;19.444;2022-10-31T01:31:37;99419.91;;;12.47;72.38
59939;BME280;45801;51.810;19.444;2022-10-31T01:34:03;99421.12;;;12.41;72.55
59939;BME280;45801;51.810;19.444;2022-10-31T01:36:35;99419.20;;;12.42;72.65
59939;BME280;45801;51.810;19.444;2022-10-31T01:39:07;99419.58;;;12.42;72.57
59939;BME280;45801;51.810;19.444;2022-10-31T01:41:36;99419.23;;;12.43;72.79
59939;BME280;45801;51.810;19.444;2022-10-31T01:46:45;99415.13;;;12.46;72.67
59939;BME280;45801;51.810;19.444;2022-10-31T01:51:56;99415.98;;;12.59;72.98
59939;BME280;45801;51.810;19.444;2022-10-31T01:54:28;99413.95;;;12.75;72.66
59939;BME280;45801;51.810;19.444;2022-10-31T01:56:57;99411.52;;;12.90;72.39
59939;BME280;45801;51.810;19.444;2022-10-31T01:59:27;99407.44;;;13.04;71.97
59939;BME280;45801;51.810;19.444;2022-10-31T02:01:55;99408.45;;;13.17;71.76
59939;BME280;45801;51.810;19.444;2022-10-31T02:04:22;99411.61;;;13.27;70.93
59939;BME280;45801;51.810;19.444;2022-10-31T02:06:52;99413.17;;;13.26;69.46
59939;BME280;45801;51.810;19.444;2022-10-31T02:09:20;99411.56;;;13.15;69.01
59939;BME280;45801;51.810;19.444;2022-10-31T02:11:51;99412.32;;;13.02;68.97
59939;BME280;45801;51.810;19.444;2022-10-31T02:14:18;99412.77;;;12.91;69.67
59939;BME280;45801;51.810;19.444;2022-10-31T02:16:45;99415.40;;;12.80;69.88
59939;BME280;45801;51.810;19.444;2022-10-31T02:19:14;99416.45;;;12.71;70.19
59939;BME280;45801;51.810;19.444;2022-10-31T02:21:50;99419.05;;;12.61;70.16
59939;BME280;45801;51.810;19.444;2022-10-31T02:32:25;99422.30;;;12.41;70.73
59939;BME280;45801;51.810;19.444;2022-10-31T02:35:25;99426.02;;;12.36;70.60
59939;BME280;45801;51.810;19.444;2022-10-31T02:40:53;99426.07;;;12.29;71.03
59939;BME280;45801;51.810;19.444;2022-10-31T02:43:32;99426.43;;;12.25;70.64
59939;BME280;45801;51.810;19.444;2022-10-31T02:46:08;99423.41;;;12.19;70.87
59939;BME280;45801;51.810;19.444;2022-10-31T02:48:37;99430.24;;;12.14;71.43
59939;BME280;45801;51.810;19.444;2022-10-31T02:51:05;99433.36;;;12.13;71.35
59939;BME280;45801;51.810;19.444;2022-10-31T02:53:36;99433.36;;;12.14;71.43
59939;BME280;45801;51.810;19.444;2022-10-31T02:58:34;99434.16;;;12.16;71.77
59939;BME280;45801;51.810;19.444;2022-10-31T03:06:25;99434.86;;;12.20;71.97
59939;BME280;45801;51.810;19.444;2022-10-31T03:08:58;99431.73;;;12.21;71.75
59939;BME280;45801;51.810;19.444;2022-10-31T03:11:32;99430.67;;;12.21;71.43
59939;BME280;45801;51.810;19.444;2022-10-31T03:14:10;99431.49;;;12.19;71.34
59939;BME280;45801;51.810;19.444;2022-10-31T03:16:47;99430.08;;;12.19;71.35
59939;BME280;45801;51.810;19.444;2022-10-31T03:21:57;99432.27;;;12.44;71.07
59939;BME280;45801;51.810;19.444;2022-10-31T03:24:27;99430.43;;;12.42;70.84
59939;BME280;45801;51.810;19.444;2022-10-31T03:26:56;99433.27;;;12.38;70.59
59939;BME280;45801;51.810;19.444;2022-10-31T03:29:26;99432.52;;;12.33;70.72
59939;BME280;45801;51.810;19.444;2022-10-31T03:32:06;99433.19;;;12.27;70.80
59939;BME280;45801;51.810;19.444;2022-10-31T03:34:36;99433.52;;;12.22;70.71
59939;BME280;45801;51.810;19.444;2022-10-31T03:37:06;99437.05;;;12.18;70.74
59939;BME280;45801;51.810;19.444;2022-10-31T03:39:34;99436.48;;;12.12;70.58
59939;BME280;45801;51.810;19.444;2022-10-31T03:42:10;99440.20;;;12.09;70.71
59939;BME280;45801;51.810;19.444;2022-10-31T03:44:38;99440.23;;;12.05;70.76
59939;BME280;45801;51.810;19.444;2022-10-31T03:47:06;99445.36;;;12.02;71.04
59939;BME280;45801;51.810;19.444;2022-10-31T03:49:32;99448.25;;;12.00;71.26
59939;BME280;45801;51.810;19.444;2022-10-31T03:52:09;99457.23;;;11.96;71.46
59939;BME280;45801;51.810;19.444;2022-10-31T03:54:44;99455.18;;;11.94;71.54
59939;BME280;45801;51.810;19.444;2022-10-31T03:57:24;99460.74;;;11.92;71.92
59939;BME280;45801;51.810;19.444;2022-10-31T04:00:03;99459.39;;;11.90;71.69
59939;BME280;45801;51.810;19.444;2022-10-31T04:02:40;99461.47;;;11.89;72.23
59939;BME280;45801;51.810;19.444;2022-10-31T04:05:08;99464.46;;;11.89;72.12
59939;BME280;45801;51.810;19.444;2022-10-31T04:07:38;99467.83;;;11.90;72.31
59939;BME280;45801;51.810;19.444;2022-10-31T04:10:10;99467.88;;;11.91;72.38
59939;BME280;45801;51.810;19.444;2022-10-31T04:12:37;99472.12;;;11.92;72.78
59939;BME280;45801;51.810;19.444;2022-10-31T04:15:06;99470.07;;;11.93;72.70
59939;BME280;45801;51.810;19.444;2022-10-31T04:17:35;99470.31;;;11.94;72.75
59939;BME280;45801;51.810;19.444;2022-10-31T04:20:03;99473.86;;;11.95;72.89
59939;BME280;45801;51.810;19.444;2022-10-31T04:22:29;99471.09;;;11.96;72.88
59939;BME280;45801;51.810;19.444;2022-10-31T04:24:54;99472.83;;;11.95;73.22
59939;BME280;45801;51.810;19.444;2022-10-31T04:27:20;99474.87;;;11.94;73.27
59939;BME280;45801;51.810;19.444;2022-10-31T04:29:46;99471.10;;;11.93;73.07
59939;BME280;45801;51.810;19.444;2022-10-31T04:32:12;99471.46;;;11.93;73.07
59939;BME280;45801;51.810;19.444;2022-10-31T04:34:37;99472.16;;;11.93;73.35
59939;BME280;45801;51.810;19.444;2022-10-31T04:37:03;99471.89;;;11.94;73.40
59939;BME280;45801;51.810;19.444;2022-10-31T04:39:28;99470.23;;;11.97;73.28
59939;BME280;45801;51.810;19.444;2022-10-31T04:41:54;99468.52;;;11.97;73.64
59939;BME280;45801;51.810;19.444;2022-10-31T04:44:20;99467.31;;;11.98;73.82
59939;BME280;45801;51.810;19.444;2022-10-31T04:46:46;99462.81;;;11.99;73.69
59939;BME280;45801;51.810;19.444;2022-10-31T04:49:11;99463.62;;;12.02;73.95
59939;BME280;45801;51.810;19.444;2022-10-31T04:51:37;99463.02;;;12.05;73.85
59939;BME280;45801;51.810;19.444;2022-10-31T04:54:03;99466.44;;;12.06;73.80
59939;BME280;45801;51.810;19.444;2022-10-31T04:56:29;99469.61;;;12.07;73.45
59939;BME280;45801;51.810;19.444;2022-10-31T04:58:54;99470.98;;;12.06;73.80
59939;BME280;45801;51.810;19.444;2022-10-31T05:01:20;99473.07;;;12.06;73.70
59939;BME280;45801;51.810;19.444;2022-10-31T05:03:46;99476.55;;;12.05;73.30
59939;BME280;45801;51.810;19.444;2022-10-31T05:06:11;99482.11;;;12.03;73.53
59939;BME280;45801;51.810;19.444;2022-10-31T05:08:37;99484.66;;;12.01;73.71
59939;BME280;45801;51.810;19.444;2022-10-31T05:11:03;99486.38;;;12.00;74.02
59939;BME280;45801;51.810;19.444;2022-10-31T05:13:30;99486.88;;;12.00;74.74
59939;BME280;45801;51.810;19.444;2022-10-31T05:15:56;99487.60;;;12.00;74.67
59939;BME280;45801;51.810;19.444;2022-10-31T05:18:22;99487.44;;;12.00;74.57
59939;BME280;45801;51.810;19.444;2022-10-31T05:20:48;99489.92;;;12.01;74.56
59939;BME280;45801;51.810;19.444;2022-10-31T05:23:14;99489.45;;;12.02;74.41
59939;BME280;45801;51.810;19.444;2022-10-31T05:25:40;99486.50;;;12.03;75.16
59939;BME280;45801;51.810;19.444;2022-10-31T05:28:07;99485.86;;;12.05;74.86
59939;BME280;45801;51.810;19.444;2022-10-31T05:30:33;99490.41;;;12.09;75.03
59939;BME280;45801;51.810;19.444;2022-10-31T05:32:59;99494.88;;;12.11;75.04
59939;BME280;45801;51.810;19.444;2022-10-31T05:35:28;99492.36;;;12.14;74.98
59939;BME280;45801;51.810;19.444;2022-10-31T05:37:54;99489.18;;;12.17;75.16
59939;BME280;45801;51.810;19.444;2022-10-31T05:40:21;99485.66;;;12.22;75.10
59939;BME280;45801;51.810;19.444;2022-10-31T05:42:47;99484.73;;;12.25;75.00
59939;BME280;45801;51.810;19.444;2022-10-31T05:45:16;99486.39;;;12.27;74.92
59939;BME280;45801;51.810;19.444;2022-10-31T05:47:57;99486.30;;;12.29;75.12
59939;BME280;45801;51.810;19.444;2022-10-31T05:50:25;99487.08;;;12.31;74.97
59939;BME280;45801;51.810;19.444;2022-10-31T05:52:56;99490.55;;;12.34;74.95
59939;BME280;45801;51.810;19.444;2022-10-31T05:55:23;99487.30;;;12.36;74.82
59939;BME280;45801;51.810;19.444;2022-10-31T05:57:50;99483.20;;;12.39;75.06
59939;BME280;45801;51.810;19.444;2022-10-31T06:00:18;99482.91;;;12.40;74.97
59939;BME280;45801;51.810;19.444;2022-10-31T06:02:44;99482.27;;;12.42;74.97
59939;BME280;45801;51.810;19.444;2022-10-31T06:05:10;99483.92;;;12.44;75.22
59939;BME280;45801;51.810;19.444;2022-10-31T06:07:36;99482.25;;;12.46;75.37
59939;BME280;45801;51.810;19.444;2022-10-31T06:10:04;99478.30;;;12.48;75.66
59939;BME280;45801;51.810;19.444;2022-10-31T06:12:30;99479.63;;;12.51;75.66
59939;BME280;45801;51.810;19.444;2022-10-31T06:14:56;99483.58;;;12.53;75.25
59939;BME280;45801;51.810;19.444;2022-10-31T06:17:22;99484.54;;;12.55;75.42
59939;BME280;45801;51.810;19.444;2022-10-31T06:19:48;99484.90;;;12.56;75.30
59939;BME280;45801;51.810;19.444;2022-10-31T06:22:14;99490.08;;;12.58;75.58
59939;BME280;45801;51.810;19.444;2022-10-31T06:24:39;99489.96;;;12.59;75.74
59939;BME280;45801;51.810;19.444;2022-10-31T06:27:05;99490.91;;;12.61;75.56
59939;BME280;45801;51.810;19.444;2022-10-31T06:29:31;99494.38;;;12.64;75.61
59939;BME280;45801;51.810;19.444;2022-10-31T06:31:57;99496.45;;;12.67;75.72
59939;BME280;45801;51.810;19.444;2022-10-31T06:34:23;99498.66;;;12.70;75.57
59939;BME280;45801;51.810;19.444;2022-10-31T06:36:49;99505.22;;;12.72;75.76
59939;BME280;45801;51.810;19.444;2022-10-31T06:39:14;99505.45;;;12.73;75.64
59939;BME280;45801;51.810;19.444;2022-10-31T06:41:40;99503.63;;;12.76;75.35
59939;BME280;45801;51.810;19.444;2022-10-31T06:44:07;99507.66;;;12.76;75.48
59939;BME280;45801;51.810;19.444;2022-10-31T06:46:33;99509.23;;;12.75;75.11
59939;BME280;45801;51.810;19.444;2022-10-31T06:48:59;99508.08;;;12.68;75.29
59939;BME280;45801;51.810;19.444;2022-10-31T06:51:25;99515.02;;;12.62;75.35
59939;BME280;45801;51.810;19.444;2022-10-31T06:53:50;99517.75;;;12.60;75.74
59939;BME280;45801;51.810;19.444;2022-10-31T06:56:16;99512.58;;;12.58;75.72
59939;BME280;45801;51.810;19.444;2022-10-31T06:58:42;99517.88;;;12.58;75.86
59939;BME280;45801;51.810;19.444;2022-10-31T07:01:08;99523.54;;;12.60;76.06
59939;BME280;45801;51.810;19.444;2022-10-31T07:03:33;99529.98;;;12.62;76.16
59939;BME280;45801;51.810;19.444;2022-10-31T07:05:59;99536.77;;;12.74;75.97
59939;BME280;45801;51.810;19.444;2022-10-31T07:08:25;99539.75;;;12.78;75.82
59939;BME280;45801;51.810;19.444;2022-10-31T07:10:52;99544.69;;;12.79;75.56
59939;BME280;45801;51.810;19.444;2022-10-31T07:13:19;99547.92;;;12.76;75.69
59939;BME280;45801;51.810;19.444;2022-10-31T07:15:50;99548.62;;;12.76;76.00
59939;BME280;45801;51.810;19.444;2022-10-31T07:18:16;99554.58;;;12.75;75.67
59939;BME280;45801;51.810;19.444;2022-10-31T07:20:42;99555.15;;;12.67;75.71
59939;BME280;45801;51.810;19.444;2022-10-31T07:23:09;99559.80;;;12.61;76.07
59939;BME280;45801;51.810;19.444;2022-10-31T07:25:37;99560.94;;;12.59;76.18
59939;BME280;45801;51.810;19.444;2022-10-31T07:28:03;99561.75;;;12.61;76.25
59939;BME280;45801;51.810;19.444;2022-10-31T07:30:29;99562.24;;;12.65;76.17
59939;BME280;45801;51.810;19.444;2022-10-31T07:32:55;99564.53;;;12.69;76.06
59939;BME280;45801;51.810;19.444;2022-10-31T07:35:23;99567.65;;;12.72;76.18
59939;BME280;45801;51.810;19.444;2022-10-31T07:37:50;99567.94;;;12.76;76.00
59939;BME280;45801;51.810;19.444;2022-10-31T07:40:16;99565.97;;;12.75;76.28
59939;BME280;45801;51.810;19.444;2022-10-31T07:42:45;99567.34;;;12.73;76.23
59939;BME280;45801;51.810;19.444;2022-10-31T07:45:14;99573.65;;;12.69;76.52
59939;BME280;45801;51.810;19.444;2022-10-31T07:47:47;99575.79;;;12.69;76.53
59939;BME280;45801;51.810;19.444;2022-10-31T07:50:16;99575.25;;;12.73;76.93
59939;BME280;45801;51.810;19.444;2022-10-31T07:52:42;99576.98;;;12.78;76.66
59939;BME280;45801;51.810;19.444;2022-10-31T07:55:08;99580.44;;;12.80;76.39
59939;BME280;45801;51.810;19.444;2022-10-31T07:57:35;99579.17;;;12.80;76.15
59939;BME280;45801;51.810;19.444;2022-10-31T08:00:07;99582.85;;;12.79;76.35
59939;BME280;45801;51.810;19.444;2022-10-31T08:02:33;99584.79;;;12.79;76.83
59939;BME280;45801;51.810;19.444;2022-10-31T08:04:59;99579.91;;;12.81;76.32
59939;BME280;45801;51.810;19.444;2022-10-31T08:07:26;99579.57;;;12.81;76.70
59939;BME280;45801;51.810;19.444;2022-10-31T08:09:51;99580.16;;;12.82;76.61
59939;BME280;45801;51.810;19.444;2022-10-31T08:12:17;99581.09;;;12.83;76.71
59939;BME280;45801;51.810;19.444;2022-10-31T08:14:43;99580.17;;;12.83;76.94
59939;BME280;45801;51.810;19.444;2022-10-31T08:17:10;99583.66;;;12.82;77.13
59939;BME280;45801;51.810;19.444;2022-10-31T08:19:36;99582.58;;;12.85;77.46
59939;BME280;45801;51.810;19.444;2022-10-31T08:22:01;99582.92;;;12.89;77.75
59939;BME280;45801;51.810;19.444;2022-10-31T08:24:27;99582.76;;;12.95;77.48
59939;BME280;45801;51.810;19.444;2022-10-31T08:26:53;99584.34;;;12.95;77.60
59939;BME280;45801;51.810;19.444;2022-10-31T08:29:18;99582.81;;;12.91;77.83
59939;BME280;45801;51.810;19.444;2022-10-31T08:31:44;99581.58;;;12.91;77.92
59939;BME280;45801;51.810;19.444;2022-10-31T08:34:10;99585.27;;;12.96;77.72
59939;BME280;45801;51.810;19.444;2022-10-31T08:36:35;99586.63;;;13.00;77.89
59939;BME280;45801;51.810;19.444;2022-10-31T08:39:02;99587.22;;;13.05;77.79
59939;BME280;45801;51.810;19.444;2022-10-31T08:41:28;99579.85;;;13.11;78.00
59939;BME280;45801;51.810;19.444;2022-10-31T08:43:53;99586.08;;;13.17;77.86
59939;BME280;45801;51.810;19.444;2022-10-31T08:46:19;99585.85;;;13.20;77.76
59939;BME280;45801;51.810;19.444;2022-10-31T08:48:47;99586.73;;;13.20;77.90
59939;BME280;45801;51.810;19.444;2022-10-31T08:51:13;99587.80;;;13.25;78.21
59939;BME280;45801;51.810;19.444;2022-10-31T08:53:39;99583.85;;;13.27;78.01
59939;BME280;45801;51.810;19.444;2022-10-31T08:56:04;99589.83;;;13.32;77.52
59939;BME280;45801;51.810;19.444;2022-10-31T08:58:30;99587.56;;;13.37;77.70
59939;BME280;45801;51.810;19.444;2022-10-31T09:01:22;99590.56;;;13.41;77.32
59939;BME280;45801;51.810;19.444;2022-10-31T09:03:47;99590.96;;;13.43;77.59
59939;BME280;45801;51.810;19.444;2022-10-31T09:06:13;99591.66;;;13.47;77.62
59939;BME280;45801;51.810;19.444;2022-10-31T09:08:39;99591.82;;;13.47;78.19
59939;BME280;45801;51.810;19.444;2022-10-31T09:11:04;99591.21;;;13.45;78.45
59939;BME280;45801;51.810;19.444;2022-10-31T09:13:32;99589.41;;;13.48;78.40
59939;BME280;45801;51.810;19.444;2022-10-31T09:15:57;99594.77;;;13.55;78.37
59939;BME280;45801;51.810;19.444;2022-10-31T09:18:26;99596.05;;;13.61;78.04
59939;BME280;45801;51.810;19.444;2022-10-31T09:20:59;99600.33;;;13.68;78.43
59939;BME280;45801;51.810;19.444;2022-10-31T09:23:24;99597.46;;;13.76;78.38
59939;BME280;45801;51.810;19.444;2022-10-31T09:25:52;99599.85;;;13.84;78.48
59939;BME280;45801;51.810;19.444;2022-10-31T09:28:20;99596.84;;;13.88;78.27
59939;BME280;45801;51.810;19.444;2022-10-31T09:30:49;99595.66;;;13.89;77.99
59939;BME280;45801;51.810;19.444;2022-10-31T09:33:16;99599.67;;;13.88;78.37
59939;BME280;45801;51.810;19.444;2022-10-31T09:35:42;99597.70;;;13.88;78.31
59939;BME280;45801;51.810;19.444;2022-10-31T09:38:13;99597.84;;;13.91;78.06
59939;BME280;45801;51.810;19.444;2022-10-31T09:40:46;99599.65;;;14.02;78.27
59939;BME280;45801;51.810;19.444;2022-10-31T09:45:54;99602.83;;;14.44;77.77
59939;BME280;45801;51.810;19.444;2022-10-31T09:50:58;99596.91;;;14.57;77.54
59939;BME280;45801;51.810;19.444;2022-10-31T09:53:43;99598.16;;;14.62;77.54
59939;BME280;45801;51.810;19.444;2022-10-31T09:56:13;99601.09;;;14.65;77.48
59939;BME280;45801;51.810;19.444;2022-10-31T09:58:44;99604.70;;;14.67;77.49
59939;BME280;45801;51.810;19.444;2022-10-31T10:01:30;99606.88;;;14.70;77.49
59939;BME280;45801;51.810;19.444;2022-10-31T10:04:03;99601.88;;;14.73;77.66
59939;BME280;45801;51.810;19.444;2022-10-31T10:06:34;99601.08;;;14.75;77.78
59939;BME280;45801;51.810;19.444;2022-10-31T10:09:04;99597.77;;;14.76;78.10
59939;BME280;45801;51.810;19.444;2022-10-31T10:17:51;99599.48;;;14.97;77.93
59939;BME280;45801;51.810;19.444;2022-10-31T10:25:37;99598.75;;;15.02;77.53
59939;BME280;45801;51.810;19.444;2022-10-31T10:28:22;99594.83;;;15.12;78.11
59939;BME280;45801;51.810;19.444;2022-10-31T10:30:54;99589.49;;;15.40;78.23
59939;BME280;45801;51.810;19.444;2022-10-31T10:36:24;99587.35;;;15.88;77.53
59939;BME280;45801;51.810;19.444;2022-10-31T10:38:59;99586.36;;;16.10;77.27
59939;BME280;45801;51.810;19.444;2022-10-31T10:41:32;99589.60;;;16.26;76.48
59939;BME280;45801;51.810;19.444;2022-10-31T10:43:58;99593.00;;;16.27;75.72
59939;BME280;45801;51.810;19.444;2022-10-31T10:46:32;99591.09;;;16.21;75.87
59939;BME280;45801;51.810;19.444;2022-10-31T10:54:39;99588.09;;;15.95;75.71
59939;BME280;45801;51.810;19.444;2022-10-31T10:59:45;99584.27;;;15.85;76.51
59939;BME280;45801;51.810;19.444;2022-10-31T11:02:21;99587.99;;;15.86;76.50
59939;BME280;45801;51.810;19.444;2022-10-31T11:04:54;99585.87;;;15.85;76.37
59939;BME280;45801;51.810;19.444;2022-10-31T11:07:20;99588.43;;;15.82;76.24
59939;BME280;45801;51.810;19.444;2022-10-31T11:09:46;99586.05;;;15.80;76.42
59939;BME280;45801;51.810;19.444;2022-10-31T11:12:25;99589.09;;;15.80;76.47
59939;BME280;45801;51.810;19.444;2022-10-31T11:14:56;99587.70;;;15.81;76.77
59939;BME280;45801;51.810;19.444;2022-10-31T11:17:32;99589.89;;;15.83;76.88
59939;BME280;45801;51.810;19.444;2022-10-31T11:20:04;99593.91;;;15.82;77.35
59939;BME280;45801;51.810;19.444;2022-10-31T11:22:31;99591.92;;;15.81;77.43
59939;BME280;45801;51.810;19.444;2022-10-31T11:24:56;99589.86;;;15.83;77.31
59939;BME280;45801;51.810;19.444;2022-10-31T11:27:24;99589.29;;;15.88;77.22
59939;BME280;45801;51.810;19.444;2022-10-31T11:29:50;99588.94;;;15.94;77.26
59939;BME280;45801;51.810;19.444;2022-10-31T11:32:21;99593.70;;;16.00;77.27
59939;BME280;45801;51.810;19.444;2022-10-31T11:34:54;99592.91;;;16.04;77.14
59939;BME280;45801;51.810;19.444;2022-10-31T11:37:29;99589.73;;;16.04;77.00
59939;BME280;45801;51.810;19.444;2022-10-31T11:39:57;99590.41;;;16.03;77.61
59939;BME280;45801;51.810;19.444;2022-10-31T11:42:28;99590.60;;;16.03;77.48
59939;BME280;45801;51.810;19.444;2022-10-31T11:44:55;99585.95;;;16.08;77.05
59939;BME280;45801;51.810;19.444;2022-10-31T11:47:29;99586.16;;;16.16;77.22
59939;BME280;45801;51.810;19.444;2022-10-31T11:50:01;99587.77;;;16.23;77.13
59939;BME280;45801;51.810;19.444;2022-10-31T11:52:30;99585.28;;;16.29;77.14
59939;BME280;45801;51.810;19.444;2022-10-31T11:55:00;99585.30;;;16.37;76.94
59939;BME280;45801;51.810;19.444;2022-10-31T11:57:30;99584.63;;;16.45;76.77
59939;BME280;45801;51.810;19.444;2022-10-31T12:00:01;99585.83;;;16.51;76.44
59939;BME280;45801;51.810;19.444;2022-10-31T12:02:28;99584.64;;;16.53;76.49
59939;BME280;45801;51.810;19.444;2022-10-31T12:05:08;99583.19;;;16.52;76.21
59939;BME280;45801;51.810;19.444;2022-10-31T12:07:37;99582.95;;;16.56;76.02
59939;BME280;45801;51.810;19.444;2022-10-31T12:10:10;99582.39;;;16.62;76.16
59939;BME280;45801;51.810;19.444;2022-10-31T12:15:31;99576.63;;;16.94;76.66
59939;BME280;45801;51.810;19.444;2022-10-31T12:23:40;99572.28;;;17.45;76.32
59939;BME280;45801;51.810;19.444;2022-10-31T12:26:15;99566.80;;;17.63;76.30
59939;BME280;45801;51.810;19.444;2022-10-31T12:49:58;99549.52;;;18.65;72.53
59939;BME280;45801;51.810;19.444;2022-10-31T12:52:52;99547.96;;;18.68;72.06
59939;BME280;45801;51.810;19.444;2022-10-31T12:55:41;99548.37;;;18.71;72.54
59939;BME280;45801;51.810;19.444;2022-10-31T12:58:16;99549.85;;;18.75;72.21
59939;BME280;45801;51.810;19.444;2022-10-31T13:00:46;99549.18;;;18.77;71.15
59939;BME280;45801;51.810;19.444;2022-10-31T13:03:29;99547.04;;;18.77;70.64
59939;BME280;45801;51.810;19.444;2022-10-31T13:06:07;99550.04;;;18.76;69.55
59939;BME280;45801;51.810;19.444;2022-10-31T13:08:41;99551.68;;;18.68;69.34
59939;BME280;45801;51.810;19.444;2022-10-31T13:11:13;99550.77;;;18.55;69.35
59939;BME280;45801;51.810;19.444;2022-10-31T13:13:53;99555.19;;;18.43;69.55
59939;BME280;45801;51.810;19.444;2022-10-31T13:16:28;99552.73;;;18.33;69.75
59939;BME280;45801;51.810;19.444;2022-10-31T13:19:09;99552.37;;;18.34;71.21
59939;BME280;45801;51.810;19.444;2022-10-31T13:21:42;99551.29;;;18.43;71.17
59939;BME280;45801;51.810;19.444;2022-10-31T13:24:18;99550.13;;;18.48;70.75
59939;BME280;45801;51.810;19.444;2022-10-31T13:26:53;99550.64;;;18.47;70.28
59939;BME280;45801;51.810;19.444;2022-10-31T13:29:35;99552.66;;;18.40;69.82
59939;BME280;45801;51.810;19.444;2022-10-31T13:32:05;99555.67;;;18.30;69.70
59939;BME280;45801;51.810;19.444;2022-10-31T13:34:38;99553.60;;;18.23;69.81
59939;BME280;45801;51.810;19.444;2022-10-31T13:37:15;99554.77;;;18.19;70.35
59939;BME280;45801;51.810;19.444;2022-10-31T13:42:55;99555.80;;;18.27;71.08
59939;BME280;45801;51.810;19.444;2022-10-31T13:45:24;99553.03;;;18.41;71.33
59939;BME280;45801;51.810;19.444;2022-10-31T13:48:00;99552.53;;;18.55;71.06
59939;BME280;45801;51.810;19.444;2022-10-31T13:50:29;99552.16;;;18.64;71.05
59939;BME280;45801;51.810;19.444;2022-10-31T13:53:18;99550.04;;;18.76;71.14
59939;BME280;45801;51.810;19.444;2022-10-31T13:55:48;99552.92;;;18.89;71.08
59939;BME280;45801;51.810;19.444;2022-10-31T13:58:28;99553.45;;;19.00;71.04
59939;BME280;45801;51.810;19.444;2022-10-31T14:01:02;99551.99;;;19.10;70.52
59939;BME280;45801;51.810;19.444;2022-10-31T14:03:30;99552.78;;;19.16;70.05
59939;BME280;45801;51.810;19.444;2022-10-31T14:05:58;99553.91;;;19.20;69.67
59939;BME280;45801;51.810;19.444;2022-10-31T14:08:24;99553.23;;;19.23;69.48
59939;BME280;45801;51.810;19.444;2022-10-31T14:10:52;99554.87;;;19.25;69.39
59939;BME280;45801;51.810;19.444;2022-10-31T14:13:36;99558.44;;;19.27;69.25
59939;BME280;45801;51.810;19.444;2022-10-31T14:16:06;99563.60;;;19.29;69.22
59939;BME280;45801;51.810;19.444;2022-10-31T14:18:47;99563.63;;;19.30;69.07
59939;BME280;45801;51.810;19.444;2022-10-31T14:23:50;99560.05;;;19.29;68.75
59939;BME280;45801;51.810;19.444;2022-10-31T14:28:49;99558.42;;;19.27;68.32
59939;BME280;45801;51.810;19.444;2022-10-31T14:31:43;99559.16;;;19.28;68.80
59939;BME280;45801;51.810;19.444;2022-10-31T14:34:37;99559.90;;;19.30;69.11
59939;BME280;45801;51.810;19.444;2022-10-31T14:43:16;99558.28;;;19.43;69.44
59939;BME280;45801;51.810;19.444;2022-10-31T14:46:02;99551.39;;;19.45;69.51